createdAt,value
2023-04-15T00:00:11.269Z,3.33
2023-04-15T00:03:16.181Z,3.88
2023-04-15T00:06:19.662Z,3.97
2023-04-15T00:09:21.855Z,4.10
2023-04-15T00:12:25.014Z,4.30
2023-04-15T00:15:27.596Z,4.40
2023-04-15T00:18:30.653Z,4.82
2023-04-15T00:21:33.182Z,3.58
2023-04-15T00:24:35.309Z,4.68
2023-04-15T00:27:38.285Z,4.43
2023-04-15T00:30:40.700Z,4.40
2023-04-15T00:33:42.904Z,5.05
2023-04-15T00:36:45.152Z,4.22
2023-04-15T00:39:47.819Z,4.43
2023-04-15T00:42:51.040Z,3.97
2023-04-15T00:45:54.886Z,4.60
2023-04-15T00:49:00.056Z,3.45
2023-04-15T00:52:05.981Z,7.25
2023-04-15T00:55:09.084Z,4.95
2023-04-15T00:58:12.475Z,4.78
2023-04-15T01:01:14.989Z,5.53
2023-04-15T01:04:18.285Z,5.68
2023-04-15T01:07:20.525Z,5.65
2023-04-15T01:10:22.743Z,4.43
2023-04-15T01:13:25.440Z,5.15
2023-04-15T01:16:28.936Z,4.80
2023-04-15T01:19:32.581Z,4.68
2023-04-15T01:22:34.995Z,5.05
2023-04-15T01:25:37.578Z,6.25
2023-04-15T01:28:39.903Z,5.57
2023-04-15T01:31:49.827Z,4.70
2023-04-15T01:35:11.473Z,6.25
2023-04-15T01:38:24.500Z,5.47
2023-04-15T01:41:28.343Z,6.72
2023-04-15T01:44:30.377Z,5.72
2023-04-15T01:47:34.508Z,6.10
2023-04-15T01:50:38.337Z,5.30
2023-04-15T01:53:40.693Z,4.90
2023-04-15T01:56:44.286Z,5.43
2023-04-15T01:59:47.125Z,5.60
2023-04-15T02:02:50.783Z,5.30
2023-04-15T02:05:53.670Z,5.03
2023-04-15T02:08:57.150Z,5.68
2023-04-15T02:11:59.592Z,5.95
2023-04-15T02:15:02.486Z,4.72
2023-04-15T02:18:05.190Z,5.72
2023-04-15T02:21:07.656Z,5.70
2023-04-15T02:24:12.485Z,7.00
2023-04-15T02:27:18.104Z,7.40
2023-04-15T02:30:24.039Z,6.72
2023-04-15T02:33:26.332Z,5.03
2023-04-15T02:36:30.000Z,5.90
2023-04-15T02:39:32.441Z,7.78
2023-04-15T02:42:34.636Z,5.57
2023-04-15T02:45:37.159Z,8.52
2023-04-15T02:48:40.399Z,5.85
2023-04-15T02:51:44.122Z,6.65
2023-04-15T02:54:46.289Z,5.70
2023-04-15T02:57:48.394Z,5.88
2023-04-15T03:00:52.681Z,7.40
2023-04-15T03:03:54.873Z,6.18
2023-04-15T03:06:57.732Z,6.38
2023-04-15T03:10:00.976Z,5.53
2023-04-15T03:13:04.536Z,7.15
2023-04-15T03:16:07.178Z,6.60
2023-04-15T03:19:09.530Z,6.13
2023-04-15T03:22:13.745Z,6.13
2023-04-15T03:25:16.073Z,7.35
2023-04-15T03:28:19.437Z,4.88
2023-04-15T03:31:23.511Z,4.68
2023-04-15T03:34:26.023Z,6.47
2023-04-15T03:37:28.530Z,7.43
2023-04-15T03:40:30.816Z,6.30
2023-04-15T03:43:33.071Z,6.18
2023-04-15T03:46:35.182Z,6.82
2023-04-15T03:49:37.902Z,7.22
2023-04-15T03:52:41.455Z,9.52
2023-04-15T03:55:43.835Z,8.20
2023-04-15T03:58:46.254Z,7.40
2023-04-15T04:01:48.987Z,7.72
2023-04-15T04:04:52.090Z,6.47
2023-04-15T04:07:54.924Z,7.47
2023-04-15T04:10:57.445Z,6.32
2023-04-15T04:14:01.941Z,7.20
2023-04-15T04:17:05.973Z,10.57
2023-04-15T04:20:11.913Z,6.82
2023-04-15T04:23:15.105Z,7.13
2023-04-15T04:26:17.598Z,6.88
2023-04-15T04:29:19.707Z,7.50
2023-04-15T04:32:22.038Z,6.63
2023-04-15T04:35:24.125Z,6.15
2023-04-15T04:38:26.541Z,7.85
2023-04-15T04:41:30.056Z,6.55
2023-04-15T04:44:32.119Z,7.10
2023-04-15T04:47:34.345Z,6.88
2023-04-15T04:50:36.966Z,6.70
2023-04-15T04:53:39.174Z,5.90
2023-04-15T04:56:41.286Z,5.93
2023-04-15T04:59:43.612Z,6.10
2023-04-15T05:02:45.903Z,5.82
2023-04-15T05:05:49.594Z,5.65
2023-04-15T05:08:51.760Z,6.18
2023-04-15T05:11:54.629Z,5.40
2023-04-15T05:18:46.510Z,7.60
2023-04-15T05:21:49.252Z,9.07
2023-04-15T05:24:52.629Z,9.20
2023-04-15T05:27:54.963Z,7.97
2023-04-15T05:30:57.092Z,7.93
2023-04-15T05:33:59.483Z,7.30
2023-04-15T05:37:01.521Z,8.27
2023-04-15T05:40:04.658Z,7.95
2023-04-15T05:43:06.807Z,8.85
2023-04-15T05:46:09.053Z,9.98
2023-04-15T05:49:11.311Z,10.00
2023-04-15T05:52:13.761Z,12.55
2023-04-15T05:55:16.318Z,10.63
2023-04-15T05:58:18.468Z,10.35
2023-04-15T06:01:20.787Z,10.73
2023-04-15T06:04:24.405Z,9.65
2023-04-15T06:07:26.673Z,11.25
2023-04-15T06:10:28.821Z,11.88
2023-04-15T06:13:31.254Z,10.52
2023-04-15T06:16:33.434Z,10.07
2023-04-15T06:19:36.839Z,10.05
2023-04-15T06:22:39.547Z,10.50
2023-04-15T06:25:44.109Z,12.15
2023-04-15T06:28:46.051Z,20.85
2023-04-15T06:31:49.367Z,14.60
2023-04-15T06:34:51.498Z,11.65
2023-04-15T06:37:53.631Z,11.70
2023-04-15T06:40:55.737Z,10.88
2023-04-15T06:43:58.078Z,11.55
2023-04-15T06:47:00.120Z,11.02
2023-04-15T06:50:02.469Z,11.27
2023-04-15T06:53:04.647Z,13.23
2023-04-15T06:56:08.734Z,11.65
2023-04-15T06:59:14.430Z,13.05
2023-04-15T07:02:19.523Z,13.55
2023-04-15T07:05:28.082Z,12.20
2023-04-15T07:08:30.041Z,11.80
2023-04-15T07:11:32.170Z,12.27
2023-04-15T07:14:34.223Z,9.70
2023-04-15T07:17:37.523Z,12.13
2023-04-15T07:20:40.338Z,9.60
2023-04-15T07:23:42.677Z,11.85
2023-04-15T07:26:45.524Z,11.73
2023-04-15T07:29:48.795Z,11.85
2023-04-15T07:32:50.865Z,11.38
2023-04-15T07:35:53.403Z,12.68
2023-04-15T07:38:55.610Z,12.50
2023-04-15T07:41:59.237Z,13.00
2023-04-15T07:45:01.703Z,12.10
2023-04-15T07:48:04.438Z,10.82
2023-04-15T07:51:07.074Z,13.13
2023-04-15T07:54:09.300Z,13.75
2023-04-15T07:57:12.583Z,14.02
2023-04-15T08:00:16.399Z,13.93
2023-04-15T08:03:18.655Z,14.73
2023-04-15T08:06:20.991Z,12.82
2023-04-15T08:09:23.192Z,10.85
2023-04-15T08:12:26.017Z,12.82
2023-04-15T08:15:28.644Z,13.10
2023-04-15T08:18:31.022Z,12.23
2023-04-15T08:21:33.325Z,12.77
2023-04-15T08:24:35.555Z,10.90
2023-04-15T08:27:38.238Z,11.27
2023-04-15T08:30:40.305Z,11.43
2023-04-15T08:33:42.904Z,11.50
2023-04-15T08:36:49.089Z,11.30
2023-04-15T08:39:54.192Z,11.52
2023-04-15T08:42:58.020Z,9.82
2023-04-15T08:46:05.404Z,10.20
2023-04-15T08:49:11.017Z,11.15
2023-04-15T08:52:13.331Z,11.27
2023-04-15T08:55:16.306Z,10.20
2023-04-15T08:58:20.703Z,12.05
2023-04-15T09:01:23.359Z,11.73
2023-04-15T09:04:26.201Z,10.60
2023-04-15T09:07:34.915Z,13.18
2023-04-15T09:10:39.507Z,12.90
2023-04-15T09:13:41.705Z,12.93
2023-04-15T09:17:06.471Z,13.50
2023-04-15T09:20:21.190Z,14.80
2023-04-15T09:23:23.569Z,14.60
2023-04-15T09:26:36.695Z,14.30
2023-04-15T09:29:39.285Z,13.48
2023-04-15T09:32:58.882Z,14.80
2023-04-15T09:36:05.881Z,13.65
2023-04-15T09:39:08.204Z,14.07
2023-04-15T09:42:11.770Z,14.82
2023-04-15T09:45:13.943Z,15.93
2023-04-15T09:48:18.546Z,14.88
2023-04-15T09:51:35.183Z,15.77
2023-04-15T09:54:39.211Z,14.48
2023-04-15T09:57:42.021Z,14.55
2023-04-15T10:00:44.323Z,13.60
2023-04-15T10:03:48.349Z,13.70
2023-04-15T10:06:56.389Z,17.42
2023-04-15T10:10:00.588Z,15.25
2023-04-15T10:13:03.664Z,15.65
2023-04-15T10:16:11.054Z,14.57
2023-04-15T10:19:16.744Z,16.15
2023-04-15T10:22:19.575Z,15.10
2023-04-15T10:25:22.698Z,13.45
2023-04-15T10:28:27.951Z,13.63
2023-04-15T10:31:30.803Z,14.38
2023-04-15T10:34:34.162Z,13.63
2023-04-15T10:38:23.454Z,13.77
2023-04-15T10:41:33.280Z,13.02
2023-04-15T10:44:57.215Z,16.45
2023-04-15T10:48:03.549Z,14.10
2023-04-15T10:51:09.481Z,11.88
2023-04-15T10:54:15.659Z,15.70
2023-04-15T11:01:13.851Z,15.02
2023-04-15T11:14:55.620Z,14.93
2023-04-15T11:19:15.672Z,14.82
2023-04-15T11:22:20.406Z,13.77
2023-04-15T11:25:28.145Z,14.85
2023-04-15T11:28:31.444Z,15.60
2023-04-15T11:31:33.609Z,12.90
2023-04-15T11:34:36.463Z,12.20
2023-04-15T11:37:39.154Z,13.73
2023-04-15T11:40:49.671Z,13.77
2023-04-15T11:43:54.073Z,13.23
2023-04-15T11:46:56.876Z,13.57
2023-04-15T11:50:17.235Z,12.90
2023-04-15T11:53:19.370Z,10.07
2023-04-15T11:56:23.935Z,8.63
2023-04-15T11:59:30.255Z,8.57
2023-04-15T12:02:40.361Z,7.55
2023-04-15T12:06:09.138Z,9.57
2023-04-15T12:09:21.147Z,8.75
2023-04-15T12:12:27.790Z,8.52
2023-04-15T12:15:32.027Z,10.43
2023-04-15T12:18:42.408Z,7.75
2023-04-15T12:21:48.450Z,7.70
2023-04-15T12:24:57.230Z,7.30
2023-04-15T12:27:59.639Z,8.57
2023-04-15T12:31:08.281Z,9.32
2023-04-15T12:34:11.095Z,8.07
2023-04-15T12:37:14.558Z,9.00
2023-04-15T12:40:16.844Z,7.97
2023-04-15T12:43:19.055Z,9.23
2023-04-15T12:46:21.815Z,8.80
2023-04-15T12:49:24.890Z,10.57
2023-04-15T12:52:26.990Z,6.57
2023-04-15T12:55:29.199Z,6.53
2023-04-15T12:58:31.374Z,7.30
2023-04-15T13:01:33.680Z,6.63
2023-04-15T13:04:35.849Z,7.55
2023-04-15T13:07:38.171Z,6.20
2023-04-15T13:10:40.498Z,6.40
2023-04-15T13:13:43.664Z,10.23
2023-04-15T13:16:46.265Z,6.43
2023-04-15T13:19:48.394Z,6.80
2023-04-15T13:22:50.616Z,5.60
2023-04-15T13:25:53.448Z,4.93
2023-04-15T13:28:55.964Z,4.32
2023-04-15T13:31:59.114Z,5.35
2023-04-15T13:35:02.743Z,4.50
2023-04-15T13:38:04.974Z,5.45
2023-04-15T13:41:07.130Z,4.72
2023-04-15T13:44:09.521Z,5.30
2023-04-15T13:47:11.762Z,5.00
2023-04-15T13:50:16.486Z,5.50
2023-04-15T13:53:18.717Z,5.00
2023-04-15T13:56:24.074Z,6.43
2023-04-15T13:59:26.276Z,4.05
2023-04-15T14:02:28.394Z,3.13
2023-04-15T14:05:32.502Z,3.50
2023-04-15T14:08:35.332Z,4.25
2023-04-15T14:11:40.407Z,3.70
2023-04-15T14:14:42.628Z,3.28
2023-04-15T14:17:44.782Z,3.42
2023-04-15T14:20:47.153Z,3.42
2023-04-15T14:23:50.021Z,3.40
2023-04-15T14:26:52.216Z,3.30
2023-04-15T14:29:54.565Z,3.70
2023-04-15T14:32:57.148Z,3.28
2023-04-15T14:36:00.316Z,3.35
2023-04-15T14:39:06.012Z,7.97
2023-04-15T14:42:08.435Z,10.38
2023-04-15T14:45:11.244Z,7.03
2023-04-15T14:48:13.549Z,5.80
2023-04-15T14:51:16.468Z,7.20
2023-04-15T14:54:22.556Z,5.55
2023-04-15T14:57:24.872Z,3.42
2023-04-15T15:00:27.050Z,3.55
2023-04-15T15:03:30.142Z,5.50
2023-04-15T15:06:42.271Z,4.32
2023-04-15T15:09:47.304Z,2.58
2023-04-15T15:12:49.499Z,3.67
2023-04-15T15:15:54.869Z,4.93
2023-04-15T15:18:57.615Z,2.53
2023-04-15T15:22:03.834Z,5.13
2023-04-15T15:25:06.308Z,6.65
2023-04-15T15:28:11.050Z,7.60
2023-04-15T15:31:13.530Z,7.30
2023-04-15T15:34:27.778Z,5.65
2023-04-15T15:37:32.013Z,5.05
2023-04-15T15:40:37.107Z,4.30
2023-04-15T15:43:47.920Z,5.00
2023-04-15T15:46:54.431Z,3.05
2023-04-15T15:49:59.803Z,3.47
2023-04-15T15:53:03.560Z,2.40
2023-04-15T15:56:13.810Z,2.70
2023-04-15T15:59:26.153Z,2.55
2023-04-15T16:02:52.432Z,3.28
2023-04-15T16:05:53.284Z,4.50
2023-04-15T16:08:59.611Z,3.88
2023-04-15T16:12:02.333Z,1.70
2023-04-15T16:15:05.014Z,2.95
2023-04-15T16:18:07.195Z,2.33
2023-04-15T16:21:17.652Z,5.57
2023-04-15T16:24:19.823Z,2.63
2023-04-15T16:27:25.007Z,2.15
2023-04-15T16:30:27.284Z,2.70
2023-04-15T16:33:29.452Z,2.47
2023-04-15T16:36:32.782Z,1.95
2023-04-15T16:39:34.979Z,2.67
2023-04-15T16:42:37.460Z,2.63
2023-04-15T16:45:39.647Z,2.30
2023-04-15T16:48:42.198Z,2.53
2023-04-15T16:51:44.353Z,3.70
2023-04-15T16:54:46.423Z,3.00
2023-04-15T16:58:02.009Z,3.88
2023-04-15T17:01:09.730Z,2.60
2023-04-15T17:04:22.205Z,5.60
2023-04-15T17:07:27.986Z,2.38
2023-04-15T17:10:34.024Z,3.75
2023-04-15T17:13:36.411Z,3.13
2023-04-15T17:16:38.777Z,3.25
2023-04-15T17:19:40.933Z,3.35
2023-04-15T17:22:45.468Z,3.20
2023-04-15T17:25:53.916Z,3.10
2023-04-15T17:28:57.736Z,3.22
2023-04-15T17:32:07.896Z,3.42
2023-04-15T17:35:33.044Z,3.28
2023-04-15T17:38:56.638Z,4.53
2023-04-15T17:42:18.867Z,2.67
2023-04-15T17:45:40.965Z,2.25
2023-04-15T17:49:03.496Z,2.20
2023-04-15T17:52:28.026Z,2.17
2023-04-15T17:55:53.166Z,1.50
2023-04-15T17:59:18.691Z,2.70
2023-04-15T18:02:41.332Z,2.78
2023-04-15T18:06:04.010Z,4.22
2023-04-15T18:09:27.477Z,2.83
2023-04-15T18:12:49.609Z,3.15
2023-04-15T18:16:11.839Z,2.85
2023-04-15T18:19:34.093Z,2.33
2023-04-15T18:22:36.390Z,3.97
2023-04-15T18:25:38.920Z,3.92
2023-04-15T18:28:44.621Z,3.25
2023-04-15T18:31:47.212Z,2.72
2023-04-15T18:34:49.456Z,2.65
2023-04-15T18:37:53.134Z,2.92
2023-04-15T18:40:55.519Z,3.38
2023-04-15T18:43:57.787Z,4.38
2023-04-15T18:47:01.279Z,3.00
2023-04-15T18:50:03.844Z,4.80
2023-04-15T18:53:06.164Z,4.82
2023-04-15T18:56:08.436Z,6.13
2023-04-15T18:59:28.084Z,3.45
2023-04-15T19:02:32.547Z,3.60
2023-04-15T19:05:35.386Z,3.95
2023-04-15T19:08:37.694Z,7.43
2023-04-15T19:11:39.953Z,8.32
2023-04-15T19:14:42.286Z,7.22
2023-04-15T19:17:44.809Z,6.50
2023-04-15T19:20:48.022Z,7.45
2023-04-15T19:23:52.311Z,6.07
2023-04-15T19:26:54.456Z,5.10
2023-04-15T19:29:56.766Z,5.80
2023-04-15T19:33:01.274Z,5.93
2023-04-15T19:36:06.343Z,3.78
2023-04-15T19:39:10.721Z,4.82
2023-04-15T19:42:12.994Z,4.97
2023-04-15T19:45:15.371Z,5.50
2023-04-15T19:48:17.848Z,5.20
2023-04-15T19:51:20.199Z,3.38
2023-04-15T19:54:23.012Z,3.55
2023-04-15T20:00:49.522Z,3.83
2023-04-15T20:03:53.425Z,3.53
2023-04-15T20:06:56.204Z,4.13
2023-04-15T20:09:58.418Z,3.65
2023-04-15T20:13:00.508Z,3.72
2023-04-15T20:16:06.924Z,3.15
2023-04-15T20:19:13.261Z,4.03
2023-04-15T20:22:16.430Z,3.80
2023-04-15T20:25:18.775Z,5.07
2023-04-15T20:28:23.560Z,3.85
2023-04-15T20:31:40.227Z,4.28
2023-04-15T20:34:42.500Z,4.50
2023-04-15T20:37:45.205Z,3.63
2023-04-15T20:40:47.351Z,3.47
2023-04-15T20:43:49.495Z,2.97
2023-04-15T20:46:52.713Z,3.33
2023-04-15T20:49:58.517Z,4.13
2023-04-15T20:53:01.082Z,4.00
2023-04-15T20:56:03.274Z,3.83
2023-04-15T20:59:06.126Z,2.67
2023-04-15T21:02:08.943Z,4.97
2023-04-15T21:05:11.527Z,4.00
2023-04-15T21:08:14.691Z,4.88
2023-04-15T21:11:36.529Z,4.88
2023-04-15T21:14:39.867Z,4.22
2023-04-15T21:17:43.300Z,4.07
2023-04-15T21:20:46.532Z,5.72
2023-04-15T21:23:48.841Z,5.25
2023-04-15T21:26:52.102Z,3.13
2023-04-15T21:29:55.004Z,5.05
2023-04-15T21:33:01.850Z,4.43
2023-04-15T21:36:05.200Z,6.32
2023-04-15T21:39:08.005Z,12.18
2023-04-15T21:42:10.428Z,8.70
2023-04-15T21:45:38.298Z,9.98
2023-04-15T21:48:41.081Z,10.10
2023-04-15T21:55:03.604Z,7.75
2023-04-15T21:58:06.580Z,9.60
2023-04-15T22:01:08.908Z,7.18
2023-04-15T22:04:16.362Z,7.80
2023-04-15T22:07:22.239Z,9.10
2023-04-15T22:10:33.299Z,7.45
2023-04-15T22:13:38.530Z,6.20
2023-04-15T22:16:43.973Z,6.90
2023-04-15T22:19:47.610Z,7.53
2023-04-15T22:22:54.281Z,5.72
2023-04-15T22:25:56.886Z,5.35
2023-04-15T22:29:07.933Z,7.10
2023-04-15T22:35:31.102Z,6.88
2023-04-15T22:38:38.224Z,5.45
2023-04-15T22:41:41.580Z,6.88
2023-04-15T22:45:09.061Z,6.00
2023-04-15T22:48:11.625Z,6.22
2023-04-15T22:51:29.248Z,5.47
2023-04-15T22:55:19.568Z,7.15
2023-04-15T22:59:11.735Z,9.05
2023-04-15T23:02:46.435Z,7.00
2023-04-15T23:06:09.351Z,5.95
2023-04-15T23:09:51.376Z,7.75
2023-04-15T23:17:24.106Z,6.57
2023-04-15T23:20:26.987Z,5.25
2023-04-15T23:23:29.092Z,6.20
2023-04-15T23:26:31.478Z,6.15
2023-04-15T23:29:33.810Z,6.93
2023-04-15T23:32:37.467Z,5.30
2023-04-15T23:35:39.801Z,6.05
2023-04-15T23:38:42.578Z,5.50
2023-04-15T23:41:44.708Z,6.30
2023-04-15T23:44:46.842Z,5.50
2023-04-15T23:47:49.045Z,5.40
2023-04-15T23:50:51.963Z,5.93
2023-04-15T23:53:54.346Z,6.65
2023-04-15T23:56:56.672Z,5.28
2023-04-15T23:59:59.126Z,5.05
